createdAt,value
2018-09-01T00:00:57.968Z,13.19
2018-09-01T00:01:57.930Z,13.18
2018-09-01T00:02:57.896Z,13.11
2018-09-01T00:03:57.860Z,13.16
2018-09-01T00:04:57.825Z,13.15
2018-09-01T00:05:57.787Z,13.16
2018-09-01T00:06:57.753Z,13.03
2018-09-01T00:07:57.711Z,13.05
2018-09-01T00:08:57.671Z,13.00
2018-09-01T00:09:57.641Z,13.08
2018-09-01T00:10:57.608Z,12.95
2018-09-01T00:11:57.563Z,13.00
2018-09-01T00:12:57.526Z,13.03
2018-09-01T00:13:57.488Z,13.05
2018-09-01T00:14:57.455Z,13.08
2018-09-01T00:15:57.418Z,13.00
2018-09-01T00:16:57.385Z,13.04
2018-09-01T00:17:57.346Z,13.08
2018-09-01T00:18:57.307Z,13.11
2018-09-01T00:19:57.271Z,13.09
2018-09-01T00:20:57.230Z,13.04
2018-09-01T00:21:57.193Z,13.01
2018-09-01T00:22:57.161Z,13.11
2018-09-01T00:23:57.129Z,13.03
2018-09-01T00:24:57.091Z,13.04
2018-09-01T00:25:57.045Z,13.12
2018-09-01T00:26:57.052Z,13.05
2018-09-01T00:27:56.998Z,13.05
2018-09-01T00:28:56.943Z,13.11
2018-09-01T00:29:56.905Z,12.98
2018-09-01T00:30:56.866Z,13.03
2018-09-01T00:31:56.829Z,13.05
2018-09-01T00:32:56.791Z,13.09
2018-09-01T00:33:56.777Z,12.97
2018-09-01T00:34:56.722Z,13.03
2018-09-01T00:35:56.688Z,13.04
2018-09-01T00:36:56.649Z,13.04
2018-09-01T00:37:56.613Z,13.01
2018-09-01T00:38:56.573Z,13.00
2018-09-01T00:39:56.533Z,12.98
2018-09-01T00:40:56.499Z,13.00
2018-09-01T00:41:56.468Z,13.01
2018-09-01T00:42:56.429Z,12.93
2018-09-01T00:43:56.388Z,12.90
2018-09-01T00:44:56.347Z,12.85
2018-09-01T00:45:56.312Z,12.87
2018-09-01T00:46:56.276Z,12.87
2018-09-01T00:47:56.245Z,12.93
2018-09-01T00:48:56.209Z,12.93
2018-09-01T00:49:56.190Z,12.83
2018-09-01T00:50:56.129Z,12.85
2018-09-01T00:51:56.093Z,12.87
2018-09-01T00:52:56.053Z,12.87
2018-09-01T00:53:56.015Z,12.83
2018-09-01T00:54:55.983Z,12.83
2018-09-01T00:55:55.943Z,12.85
2018-09-01T00:56:55.908Z,12.86
2018-09-01T00:57:55.865Z,12.80
2018-09-01T00:58:55.830Z,12.76
2018-09-01T00:59:55.798Z,12.79
2018-09-01T01:00:55.766Z,12.76
2018-09-01T01:01:55.722Z,12.82
2018-09-01T01:02:55.686Z,12.82
2018-09-01T01:03:55.646Z,12.78
2018-09-01T01:04:55.611Z,12.78
2018-09-01T01:05:55.574Z,12.80
2018-09-01T01:06:55.536Z,12.68
2018-09-01T01:07:55.501Z,12.68
2018-09-01T01:08:55.465Z,12.58
2018-09-01T01:09:55.432Z,12.60
2018-09-01T01:10:55.390Z,12.49
2018-09-01T01:11:55.352Z,12.45
2018-09-01T01:12:55.312Z,12.43
2018-09-01T01:13:55.280Z,12.40
2018-09-01T01:14:55.241Z,12.39
2018-09-01T01:15:55.202Z,12.39
2018-09-01T01:16:55.164Z,12.42
2018-09-01T01:17:55.130Z,12.39
2018-09-01T01:18:55.096Z,12.36
2018-09-01T01:19:55.056Z,12.36
2018-09-01T01:20:55.022Z,12.43
2018-09-01T01:21:54.982Z,12.42
2018-09-01T01:22:54.946Z,12.43
2018-09-01T01:23:54.905Z,12.36
2018-09-01T01:24:54.869Z,12.39
2018-09-01T01:25:54.833Z,12.32
2018-09-01T01:26:54.793Z,12.29
2018-09-01T01:27:54.762Z,12.24
2018-09-01T01:28:54.725Z,12.21
2018-09-01T01:29:54.690Z,12.29
2018-09-01T01:30:54.647Z,12.22
2018-09-01T01:31:54.614Z,12.21
2018-09-01T01:32:54.575Z,12.21
2018-09-01T01:33:54.536Z,12.21
2018-09-01T01:34:54.502Z,12.22
2018-09-01T01:35:54.465Z,12.25
2018-09-01T01:36:54.434Z,12.25
2018-09-01T01:37:54.386Z,12.31
2018-09-01T01:38:54.349Z,12.37
2018-09-01T01:39:54.320Z,12.35
2018-09-01T01:40:54.312Z,12.31
2018-09-01T01:41:54.238Z,12.35
2018-09-01T01:42:54.204Z,12.40
2018-09-01T01:43:54.159Z,12.37
2018-09-01T01:44:54.126Z,12.37
2018-09-01T01:45:54.089Z,12.32
2018-09-01T01:46:54.057Z,12.35
2018-09-01T01:47:54.021Z,12.40
2018-09-01T01:48:53.975Z,12.35
2018-09-01T01:49:53.941Z,12.35
2018-09-01T01:50:53.899Z,12.37
2018-09-01T01:51:53.868Z,12.36
2018-09-01T01:52:53.845Z,12.25
2018-09-01T01:53:53.796Z,12.27
2018-09-01T01:54:53.757Z,12.32
2018-09-01T01:55:53.714Z,12.35
2018-09-01T01:56:53.679Z,12.28
2018-09-01T01:57:53.643Z,12.24
2018-09-01T01:58:53.604Z,12.21
2018-09-01T01:59:53.571Z,12.18
2018-09-01T02:00:53.533Z,12.17
2018-09-01T02:01:53.491Z,12.18
2018-09-01T02:02:53.456Z,12.18
2018-09-01T02:03:53.434Z,12.18
2018-09-01T02:04:53.383Z,12.21
2018-09-01T02:05:53.343Z,12.20
2018-09-01T02:06:53.309Z,12.07
2018-09-01T02:07:53.266Z,12.12
2018-09-01T02:08:53.233Z,12.07
2018-09-01T02:09:53.201Z,12.07
2018-09-01T02:10:53.153Z,12.06
2018-09-01T02:11:53.123Z,12.02
2018-09-01T02:12:53.081Z,11.99
2018-09-01T02:13:53.049Z,12.00
2018-09-01T02:14:53.010Z,12.02
2018-09-01T02:15:52.967Z,11.90
2018-09-01T02:16:52.931Z,11.99
2018-09-01T02:17:52.894Z,11.99
2018-09-01T02:18:52.862Z,11.90
2018-09-01T02:19:52.820Z,11.95
2018-09-01T02:20:52.785Z,11.86
2018-09-01T02:21:52.744Z,11.90
2018-09-01T02:22:52.706Z,11.84
2018-09-01T02:23:52.679Z,11.97
2018-09-01T02:24:52.633Z,11.80
2018-09-01T02:25:52.599Z,11.84
2018-09-01T02:26:52.566Z,11.94
2018-09-01T02:27:52.517Z,12.02
2018-09-01T02:28:52.484Z,12.00
2018-09-01T02:29:52.445Z,11.99
2018-09-01T02:30:52.411Z,12.03
2018-09-01T02:31:52.376Z,11.97
2018-09-01T02:32:52.340Z,12.00
2018-09-01T02:33:52.295Z,12.02
2018-09-01T02:34:52.255Z,11.99
2018-09-01T02:35:52.224Z,11.97
2018-09-01T02:36:52.189Z,11.90
2018-09-01T02:37:52.148Z,12.04
2018-09-01T02:38:52.111Z,12.00
2018-09-01T02:39:52.068Z,11.97
2018-09-01T02:40:52.033Z,11.99
2018-09-01T02:41:51.994Z,12.00
2018-09-01T02:42:51.954Z,11.95
2018-09-01T02:43:51.924Z,11.90
2018-09-01T02:44:51.883Z,11.94
2018-09-01T02:45:51.845Z,11.95
2018-09-01T02:46:51.813Z,11.88
2018-09-01T02:47:51.787Z,11.87
2018-09-01T02:48:51.733Z,11.90
2018-09-01T02:49:51.694Z,11.84
2018-09-01T02:50:51.660Z,11.90
2018-09-01T02:51:51.623Z,11.87
2018-09-01T02:52:51.585Z,11.88
2018-09-01T02:53:51.544Z,11.95
2018-09-01T02:54:51.514Z,11.86
2018-09-01T02:55:51.475Z,11.88
2018-09-01T02:56:51.440Z,11.84
2018-09-01T02:57:51.400Z,11.91
2018-09-01T02:58:51.365Z,11.94
2018-09-01T02:59:51.318Z,11.81
2018-09-01T03:00:51.288Z,11.84
2018-09-01T03:01:51.243Z,11.84
2018-09-01T03:02:51.204Z,11.80
2018-09-01T03:03:51.174Z,11.75
2018-09-01T03:04:51.132Z,11.81
2018-09-01T03:05:51.091Z,11.78
2018-09-01T03:06:51.051Z,11.72
2018-09-01T03:07:51.022Z,11.73
2018-09-01T03:08:50.999Z,11.78
2018-09-01T03:09:50.949Z,11.81
2018-09-01T03:10:50.908Z,11.70
2018-09-01T03:11:50.888Z,11.86
2018-09-01T03:12:50.830Z,11.77
2018-09-01T03:13:50.796Z,11.81
2018-09-01T03:14:50.762Z,11.80
2018-09-01T03:15:50.722Z,11.75
2018-09-01T03:16:50.681Z,11.69
2018-09-01T03:17:50.646Z,11.75
2018-09-01T03:18:50.611Z,11.69
2018-09-01T03:19:50.562Z,11.59
2018-09-01T03:20:50.526Z,11.73
2018-09-01T03:21:50.492Z,11.70
2018-09-01T03:22:50.456Z,11.70
2018-09-01T03:23:50.418Z,11.70
2018-09-01T03:24:50.377Z,11.72
2018-09-01T03:25:50.342Z,11.72
2018-09-01T03:26:50.297Z,11.72
2018-09-01T03:27:50.269Z,11.72
2018-09-01T03:28:50.229Z,11.69
2018-09-01T03:29:50.186Z,11.69
2018-09-01T03:30:50.153Z,11.69
2018-09-01T03:31:50.110Z,11.63
2018-09-01T03:32:50.073Z,11.57
2018-09-01T03:33:50.037Z,11.55
2018-09-01T03:34:49.994Z,11.62
2018-09-01T03:35:49.960Z,11.55
2018-09-01T03:36:49.922Z,11.52
2018-09-01T03:37:49.883Z,11.54
2018-09-01T03:38:49.842Z,11.52
2018-09-01T03:39:49.809Z,11.54
2018-09-01T03:40:49.773Z,11.63
2018-09-01T03:41:49.732Z,11.60
2018-09-01T03:42:49.696Z,11.59
2018-09-01T03:43:49.665Z,11.60
2018-09-01T03:44:49.617Z,11.65
2018-09-01T03:45:49.579Z,11.66
2018-09-01T03:46:49.539Z,11.55
2018-09-01T03:47:49.508Z,11.57
2018-09-01T03:48:49.472Z,11.60
2018-09-01T03:49:49.430Z,11.60
2018-09-01T03:50:49.393Z,11.60
2018-09-01T03:51:49.349Z,11.59
2018-09-01T03:52:49.314Z,11.63
2018-09-01T04:06:48.280Z,11.47
2018-09-01T04:07:48.197Z,11.43
2018-09-01T04:08:48.155Z,11.19
2018-09-01T04:09:48.119Z,11.19
2018-09-01T04:10:48.077Z,11.19
2018-09-01T04:11:48.037Z,11.12
2018-09-01T04:12:47.995Z,11.12
2018-09-01T04:13:47.954Z,11.07
2018-09-01T04:14:47.911Z,11.10
2018-09-01T04:15:47.877Z,11.12
2018-09-01T04:16:47.840Z,11.04
2018-09-01T04:17:47.793Z,10.99
2018-09-01T04:18:47.753Z,11.02
2018-09-01T04:19:47.727Z,10.97
2018-09-01T04:20:47.678Z,10.97
2018-09-01T04:21:47.647Z,10.97
2018-09-01T04:22:47.604Z,10.97
2018-09-01T04:23:47.568Z,10.96
2018-09-01T04:24:47.529Z,10.99
2018-09-01T04:25:47.484Z,11.00
2018-09-01T04:26:47.445Z,10.97
2018-09-01T04:27:47.404Z,11.08
2018-09-01T04:28:47.368Z,10.96
2018-09-01T04:29:47.331Z,10.99
2018-09-01T04:30:47.296Z,11.12
2018-09-01T04:31:47.265Z,11.11
2018-09-01T04:32:47.216Z,11.04
2018-09-01T04:33:47.182Z,11.14
2018-09-01T04:34:47.141Z,11.15
2018-09-01T04:35:47.116Z,11.04
2018-09-01T04:36:47.064Z,11.05
2018-09-01T04:37:47.024Z,11.04
2018-09-01T04:38:46.983Z,10.96
2018-09-01T04:39:46.947Z,10.94
2018-09-01T04:40:46.907Z,10.94
2018-09-01T04:41:46.871Z,11.00
2018-09-01T04:42:46.837Z,10.99
2018-09-01T04:43:46.806Z,10.92
2018-09-01T04:44:46.757Z,10.96
2018-09-01T04:45:46.719Z,11.00
2018-09-01T04:46:46.685Z,10.97
2018-09-01T04:47:46.651Z,10.99
2018-09-01T04:48:46.604Z,10.96
2018-09-01T04:49:46.564Z,10.97
2018-09-01T04:50:46.531Z,10.92
2018-09-01T04:51:46.491Z,10.94
2018-09-01T04:52:46.453Z,10.87
2018-09-01T04:53:46.417Z,10.84
2018-09-01T04:54:46.378Z,10.84
2018-09-01T04:55:46.340Z,10.79
2018-09-01T04:56:46.301Z,10.82
2018-09-01T04:57:46.259Z,10.87
2018-09-01T04:58:46.220Z,10.86
2018-09-01T04:59:46.184Z,10.79
2018-09-01T05:00:46.159Z,10.81
2018-09-01T05:01:46.113Z,10.82
2018-09-01T05:02:46.082Z,10.79
2018-09-01T05:03:46.072Z,10.82
2018-09-01T05:04:45.992Z,10.89
2018-09-01T05:05:45.956Z,10.81
2018-09-01T05:06:45.921Z,10.76
2018-09-01T05:07:45.882Z,10.82
2018-09-01T05:08:45.843Z,10.81
2018-09-01T05:09:45.802Z,10.82
2018-09-01T05:10:45.768Z,10.89
2018-09-01T05:11:45.725Z,10.81
2018-09-01T05:12:45.689Z,10.92
2018-09-01T05:13:45.651Z,10.94
2018-09-01T05:14:45.616Z,10.93
2018-09-01T05:15:45.579Z,10.94
2018-09-01T05:16:45.536Z,10.97
2018-09-01T05:17:45.497Z,11.08
2018-09-01T05:18:45.468Z,11.08
2018-09-01T05:19:45.428Z,11.02
2018-09-01T05:20:45.387Z,11.08
2018-09-01T05:21:45.344Z,11.17
2018-09-01T05:22:45.305Z,11.14
2018-09-01T05:23:45.281Z,11.22
2018-09-01T05:24:45.230Z,11.17
2018-09-01T05:25:45.202Z,11.18
2018-09-01T05:26:45.158Z,11.25
2018-09-01T05:27:45.180Z,11.23
2018-09-01T05:28:45.082Z,11.19
2018-09-01T05:29:45.041Z,11.29
2018-09-01T05:30:45.008Z,11.40
2018-09-01T05:31:44.966Z,11.47
2018-09-01T05:32:44.931Z,11.47
2018-09-01T05:33:44.890Z,11.60
2018-09-01T05:34:44.858Z,11.62
2018-09-01T05:35:44.812Z,11.69
2018-09-01T05:36:44.818Z,11.73
2018-09-01T05:37:44.738Z,11.72
2018-09-01T05:38:44.703Z,11.84
2018-09-01T05:39:44.673Z,11.94
2018-09-01T05:40:44.631Z,11.87
2018-09-01T05:41:44.585Z,12.04
2018-09-01T05:42:44.547Z,12.10
2018-09-01T05:43:44.567Z,12.02
2018-09-01T05:44:44.473Z,12.20
2018-09-01T05:45:44.443Z,12.21
2018-09-01T05:46:44.404Z,12.27
2018-09-01T05:47:44.363Z,12.27
2018-09-01T05:48:44.324Z,12.27
2018-09-01T05:49:44.284Z,12.29
2018-09-01T05:50:44.294Z,12.35
2018-09-01T05:51:44.212Z,12.37
2018-09-01T05:52:44.173Z,12.42
2018-09-01T05:53:44.133Z,12.43
2018-09-01T05:54:44.095Z,12.50
2018-09-01T05:55:44.057Z,12.58
2018-09-01T05:56:44.021Z,12.62
2018-09-01T05:57:43.984Z,12.70
2018-09-01T05:58:43.949Z,12.72
2018-09-01T05:59:43.912Z,12.67
2018-09-01T06:00:43.876Z,12.82
2018-09-01T06:01:43.832Z,12.85
2018-09-01T06:02:43.798Z,12.85
2018-09-01T06:03:43.760Z,12.82
2018-09-01T06:04:43.726Z,12.85
2018-09-01T06:05:43.686Z,12.85
2018-09-01T06:06:43.653Z,12.93
2018-09-01T06:07:43.608Z,12.90
2018-09-01T06:08:43.572Z,12.94
2018-09-01T06:09:43.537Z,12.97
2018-09-01T06:10:43.501Z,12.95
2018-09-01T06:11:43.465Z,12.97
2018-09-01T06:12:43.426Z,13.05
2018-09-01T06:13:43.385Z,13.11
2018-09-01T06:14:43.347Z,13.13
2018-09-01T06:15:43.311Z,13.15
2018-09-01T06:16:43.274Z,13.18
2018-09-01T06:17:43.387Z,13.12
2018-09-01T06:18:43.205Z,13.09
2018-09-01T06:19:43.167Z,12.98
2018-09-01T06:20:43.127Z,12.97
2018-09-01T06:21:43.095Z,13.01
2018-09-01T06:22:43.050Z,13.01
2018-09-01T06:23:43.059Z,13.05
2018-09-01T06:24:43.032Z,13.13
2018-09-01T06:25:42.939Z,13.13
2018-09-01T06:26:42.901Z,13.15
2018-09-01T06:27:42.866Z,13.31
2018-09-01T06:28:42.829Z,13.25
2018-09-01T06:29:42.798Z,13.25
2018-09-01T06:30:42.769Z,13.31
2018-09-01T06:31:42.723Z,13.33
2018-09-01T06:32:42.685Z,13.47
2018-09-01T06:33:42.645Z,13.46
2018-09-01T06:34:42.610Z,13.57
2018-09-01T06:35:42.571Z,13.63
2018-09-01T06:36:42.535Z,13.63
2018-09-01T06:37:42.571Z,13.71
2018-09-01T06:38:42.466Z,13.81
2018-09-01T06:39:42.425Z,13.81
2018-09-01T06:40:42.387Z,13.85
2018-09-01T06:41:42.356Z,13.95
2018-09-01T06:42:42.321Z,13.89
2018-09-01T06:43:42.289Z,13.97
2018-09-01T06:44:42.248Z,13.95
2018-09-01T06:45:42.206Z,13.92
2018-09-01T06:46:42.169Z,14.03
2018-09-01T06:47:42.132Z,13.97
2018-09-01T06:48:42.096Z,13.96
2018-09-01T06:49:42.065Z,14.03
2018-09-01T06:50:42.032Z,14.07
2018-09-01T06:51:41.992Z,14.10
2018-09-01T06:52:41.959Z,14.10
2018-09-01T06:53:41.915Z,14.07
2018-09-01T06:54:41.876Z,14.07
2018-09-01T06:55:41.845Z,14.05
2018-09-01T06:56:41.816Z,13.99
2018-09-01T06:57:41.773Z,14.04
2018-09-01T06:58:41.734Z,14.04
2018-09-01T06:59:41.695Z,14.08
2018-09-01T07:00:41.660Z,14.07
2018-09-01T07:01:41.626Z,14.07
2018-09-01T07:02:41.595Z,14.14
2018-09-01T07:03:41.560Z,14.04
2018-09-01T07:04:41.517Z,14.05
2018-09-01T07:05:41.519Z,14.14
2018-09-01T07:06:41.441Z,14.07
2018-09-01T07:07:41.408Z,14.11
2018-09-01T07:08:41.415Z,14.07
2018-09-01T07:09:41.338Z,14.15
2018-09-01T07:10:41.303Z,14.17
2018-09-01T07:11:41.262Z,14.23
2018-09-01T07:12:41.225Z,14.26
2018-09-01T07:13:41.191Z,14.12
2018-09-01T07:14:41.159Z,14.25
2018-09-01T07:15:41.126Z,14.17
2018-09-01T07:16:41.084Z,14.28
2018-09-01T07:17:41.045Z,14.23
2018-09-01T07:18:41.009Z,14.18
2018-09-01T07:19:40.976Z,14.26
2018-09-01T07:20:40.937Z,14.26
2018-09-01T07:21:40.907Z,14.18
2018-09-01T07:22:40.868Z,14.29
2018-09-01T07:23:40.832Z,14.26
2018-09-01T07:24:40.795Z,14.35
2018-09-01T07:25:40.756Z,14.32
2018-09-01T07:26:40.719Z,14.41
2018-09-01T07:27:40.691Z,14.32
2018-09-01T07:28:40.650Z,14.41
2018-09-01T07:29:40.612Z,14.36
2018-09-01T07:30:40.692Z,14.41
2018-09-01T07:31:40.540Z,14.36
2018-09-01T07:32:40.520Z,14.47
2018-09-01T07:33:40.469Z,14.41
2018-09-01T07:34:40.437Z,14.51
2018-09-01T07:35:40.405Z,14.53
2018-09-01T07:36:40.363Z,14.54
2018-09-01T07:37:40.326Z,14.58
2018-09-01T07:38:40.286Z,14.59
2018-09-01T07:39:40.255Z,14.62
2018-09-01T07:40:40.217Z,14.69
2018-09-01T07:41:40.184Z,14.73
2018-09-01T07:42:40.152Z,14.81
2018-09-01T07:43:40.107Z,14.70
2018-09-01T07:44:40.073Z,14.82
2018-09-01T07:45:40.038Z,14.72
2018-09-01T07:46:40.003Z,14.77
2018-09-01T07:47:39.973Z,14.82
2018-09-01T07:48:39.929Z,14.77
2018-09-01T07:49:39.894Z,14.79
2018-09-01T07:50:39.860Z,14.82
2018-09-01T07:51:39.822Z,14.84
2018-09-01T07:52:39.784Z,14.92
2018-09-01T07:53:39.750Z,14.82
2018-09-01T07:54:39.738Z,14.92
2018-09-01T07:55:39.679Z,14.92
2018-09-01T07:56:39.643Z,14.96
2018-09-01T07:57:39.609Z,14.94
2018-09-01T07:58:39.586Z,14.96
2018-09-01T07:59:39.539Z,14.97
2018-09-01T08:00:39.508Z,15.00
2018-09-01T08:01:39.462Z,15.03
2018-09-01T08:02:39.425Z,15.06
2018-09-01T08:03:39.396Z,15.04
2018-09-01T08:04:39.358Z,15.04
2018-09-01T08:05:39.323Z,15.04
2018-09-01T08:06:39.290Z,15.10
2018-09-01T08:07:39.250Z,15.11
2018-09-01T08:08:39.217Z,15.11
2018-09-01T08:09:39.182Z,15.09
2018-09-01T08:10:39.143Z,15.18
2018-09-01T08:11:39.117Z,15.21
2018-09-01T08:12:39.068Z,15.28
2018-09-01T08:13:39.096Z,15.24
2018-09-01T08:14:39.085Z,15.29
2018-09-01T08:15:38.968Z,15.22
2018-09-01T08:16:38.935Z,15.24
2018-09-01T08:17:38.904Z,15.24
2018-09-01T08:18:38.859Z,15.33
2018-09-01T08:19:38.824Z,15.37
2018-09-01T08:20:38.793Z,15.33
2018-09-01T08:21:40.734Z,15.39
2018-09-01T08:22:38.715Z,15.36
2018-09-01T08:23:38.681Z,15.47
2018-09-01T08:24:38.649Z,15.47
2018-09-01T08:25:38.617Z,15.62
2018-09-01T08:26:38.575Z,15.58
2018-09-01T08:27:38.540Z,15.55
2018-09-01T08:28:38.507Z,15.67
2018-09-01T08:29:38.465Z,15.67
2018-09-01T08:30:38.434Z,15.70
2018-09-01T08:31:38.399Z,15.59
2018-09-01T08:32:38.365Z,15.73
2018-09-01T08:33:38.393Z,15.65
2018-09-01T08:34:38.293Z,15.77
2018-09-01T08:35:38.276Z,15.80
2018-09-01T08:36:38.217Z,15.91
2018-09-01T08:37:38.188Z,15.95
2018-09-01T08:38:38.150Z,15.94
2018-09-01T08:39:38.116Z,16.04
2018-09-01T08:40:38.092Z,15.98
2018-09-01T08:41:38.045Z,16.02
2018-09-01T08:42:38.011Z,16.15
2018-09-01T08:43:37.973Z,16.15
2018-09-01T08:44:37.942Z,16.23
2018-09-01T08:45:37.910Z,16.23
2018-09-01T08:46:37.869Z,16.26
2018-09-01T08:47:37.833Z,16.32
2018-09-01T08:48:37.796Z,16.28
2018-09-01T08:49:37.775Z,16.38
2018-09-01T08:50:37.730Z,16.32
2018-09-01T08:51:37.697Z,16.46
2018-09-01T08:52:37.662Z,16.46
2018-09-01T08:53:37.621Z,16.54
2018-09-01T08:54:37.590Z,16.50
2018-09-01T08:55:37.560Z,16.49
2018-09-01T08:56:37.554Z,16.51
2018-09-01T08:57:37.486Z,16.54
2018-09-01T08:58:37.454Z,16.47
2018-09-01T08:59:37.417Z,16.51
2018-09-01T09:00:37.381Z,16.47
2018-09-01T09:01:37.341Z,16.65
2018-09-01T09:02:37.308Z,16.66
2018-09-01T09:03:37.276Z,16.76
2018-09-01T09:04:37.243Z,16.71
2018-09-01T09:05:37.227Z,16.83
2018-09-01T09:06:37.168Z,16.84
2018-09-01T09:07:37.135Z,16.86
2018-09-01T09:08:37.096Z,16.86
2018-09-01T09:09:37.068Z,16.87
2018-09-01T09:10:37.033Z,16.87
2018-09-01T09:11:37.065Z,16.93
2018-09-01T09:12:36.968Z,16.99
2018-09-01T09:13:36.923Z,16.91
2018-09-01T09:14:36.892Z,16.93
2018-09-01T09:15:36.856Z,16.90
2018-09-01T09:16:36.817Z,16.89
2018-09-01T09:17:36.791Z,16.94
2018-09-01T09:18:36.809Z,17.02
2018-09-01T09:19:36.717Z,17.08
2018-09-01T09:20:36.682Z,17.19
2018-09-01T09:21:36.657Z,17.41
2018-09-01T09:22:36.615Z,17.49
2018-09-01T09:23:36.581Z,17.60
2018-09-01T09:24:36.547Z,17.63
2018-09-01T09:25:36.512Z,17.60
2018-09-01T09:26:36.475Z,17.54
2018-09-01T09:27:36.441Z,17.63
2018-09-01T09:28:36.401Z,17.56
2018-09-01T09:29:36.374Z,17.48
2018-09-01T09:30:36.343Z,17.38
2018-09-01T09:31:36.307Z,17.31
2018-09-01T09:32:36.272Z,17.36
2018-09-01T09:33:36.246Z,17.52
2018-09-01T09:34:36.221Z,17.63
2018-09-01T09:35:36.175Z,17.64
2018-09-01T09:36:36.140Z,17.72
2018-09-01T09:37:36.094Z,17.80
2018-09-01T09:38:36.064Z,17.95
2018-09-01T09:39:36.028Z,18.00
2018-09-01T09:40:35.991Z,18.00
2018-09-01T09:41:35.963Z,17.95
2018-09-01T09:42:35.931Z,17.86
2018-09-01T09:43:35.895Z,17.89
2018-09-01T09:44:35.860Z,17.87
2018-09-01T09:45:35.819Z,17.80
2018-09-01T09:46:35.790Z,17.94
2018-09-01T09:47:35.756Z,17.92
2018-09-01T09:48:35.720Z,18.04
2018-09-01T09:49:35.690Z,17.97
2018-09-01T09:50:35.653Z,17.97
2018-09-01T09:51:35.618Z,17.90
2018-09-01T09:52:35.588Z,18.03
2018-09-01T09:53:35.559Z,18.00
2018-09-01T09:54:35.518Z,18.08
2018-09-01T09:55:35.490Z,18.07
2018-09-01T09:56:35.450Z,18.13
2018-09-01T09:57:35.410Z,18.23
2018-09-01T09:58:35.382Z,18.26
2018-09-01T09:59:35.348Z,18.28
2018-09-01T10:00:35.308Z,18.18
2018-09-01T10:01:35.280Z,18.25
2018-09-01T10:02:35.244Z,18.20
2018-09-01T10:03:35.225Z,18.22
2018-09-01T10:04:35.178Z,18.25
2018-09-01T10:05:35.201Z,18.41
2018-09-01T10:06:35.108Z,18.41
2018-09-01T10:21:07.652Z,18.19
2018-09-01T10:22:07.569Z,18.22
2018-09-01T10:23:07.532Z,18.44
2018-09-01T10:24:07.545Z,18.49
2018-09-01T10:25:07.448Z,18.58
2018-09-01T10:26:07.410Z,18.62
2018-09-01T10:27:07.473Z,18.73
2018-09-01T10:28:07.399Z,18.90
2018-09-01T10:29:07.312Z,18.98
2018-09-01T10:30:07.273Z,18.98
2018-09-01T10:31:07.234Z,18.93
2018-09-01T10:32:07.197Z,18.89
2018-09-01T10:33:07.164Z,18.92
2018-09-01T10:34:07.130Z,18.77
2018-09-01T10:35:07.095Z,18.56
2018-09-01T10:36:07.056Z,18.55
2018-09-01T10:37:07.028Z,18.73
2018-09-01T10:38:06.989Z,18.59
2018-09-01T10:39:06.960Z,18.81
2018-09-01T10:40:06.925Z,18.73
2018-09-01T10:41:06.891Z,18.71
2018-09-01T10:42:06.855Z,18.81
2018-09-01T10:43:06.819Z,18.88
2018-09-01T10:44:06.790Z,18.71
2018-09-01T10:45:06.747Z,18.73
2018-09-01T10:46:06.714Z,18.74
2018-09-01T10:47:06.689Z,18.65
2018-09-01T10:48:06.648Z,18.71
2018-09-01T10:49:06.622Z,18.66
2018-09-01T10:50:06.578Z,18.68
2018-09-01T10:51:06.544Z,18.80
2018-09-01T10:52:06.562Z,18.71
2018-09-01T10:53:06.481Z,18.77
2018-09-01T10:54:06.451Z,18.84
2018-09-01T10:55:06.412Z,18.70
2018-09-01T10:56:06.375Z,18.62
2018-09-01T10:57:06.346Z,18.44
2018-09-01T10:58:06.313Z,18.33
2018-09-01T10:59:06.311Z,18.33
2018-09-01T11:00:06.244Z,18.33
2018-09-01T11:01:06.211Z,18.45
2018-09-01T11:02:06.185Z,18.50
2018-09-01T11:03:06.158Z,18.58
2018-09-01T11:04:06.114Z,18.75
2018-09-01T11:05:06.132Z,18.80
2018-09-01T11:06:06.038Z,18.99
2018-09-01T11:07:06.007Z,18.90
2018-09-01T11:08:05.976Z,18.90
2018-09-01T11:09:05.948Z,18.86
2018-09-01T11:10:05.913Z,18.89
2018-09-01T11:11:05.877Z,18.92
2018-09-01T11:12:05.841Z,18.90
2018-09-01T11:13:05.813Z,18.96
2018-09-01T11:14:05.775Z,19.08
2018-09-01T11:15:05.742Z,19.16
2018-09-01T11:16:05.711Z,19.18
2018-09-01T11:17:05.678Z,19.29
2018-09-01T11:18:05.645Z,19.22
2018-09-01T11:19:05.607Z,19.37
2018-09-01T11:20:05.671Z,19.44
2018-09-01T11:21:05.538Z,19.34
2018-09-01T11:22:05.511Z,19.26
2018-09-01T11:23:05.478Z,19.14
2018-09-01T11:24:05.438Z,19.12
2018-09-01T11:25:05.416Z,18.84
2018-09-01T11:26:05.371Z,18.58
2018-09-01T11:27:05.339Z,18.52
2018-09-01T11:28:05.329Z,18.49
2018-09-01T11:29:05.278Z,18.66
2018-09-01T11:30:05.243Z,18.71
2018-09-01T11:31:05.207Z,18.78
2018-09-01T11:32:05.173Z,18.95
2018-09-01T11:33:05.137Z,19.16
2018-09-01T11:34:05.124Z,19.18
2018-09-01T11:35:05.074Z,19.16
2018-09-01T11:36:05.053Z,19.40
2018-09-01T11:37:05.012Z,19.47
2018-09-01T11:38:04.968Z,19.62
2018-09-01T11:39:04.938Z,19.64
2018-09-01T11:40:04.907Z,19.77
2018-09-01T11:41:04.878Z,19.82
2018-09-01T11:42:04.859Z,19.95
2018-09-01T11:43:05.000Z,19.82
2018-09-01T11:44:04.774Z,20.06
2018-09-01T11:45:04.741Z,20.10
2018-09-01T11:46:04.707Z,20.34
2018-09-01T11:47:04.677Z,20.44
2018-09-01T11:48:04.648Z,20.31
2018-09-01T11:49:04.615Z,20.32
2018-09-01T11:50:04.581Z,20.37
2018-09-01T11:51:04.556Z,20.22
2018-09-01T11:52:04.544Z,20.18
2018-09-01T11:53:04.518Z,19.95
2018-09-01T11:54:04.452Z,19.71
2018-09-01T11:55:04.416Z,19.56
2018-09-01T11:56:04.383Z,19.29
2018-09-01T11:57:04.349Z,19.19
2018-09-01T11:58:04.320Z,19.19
2018-09-01T11:59:04.284Z,19.09
2018-09-01T12:00:04.256Z,19.07
2018-09-01T12:01:04.224Z,19.16
2018-09-01T12:02:04.194Z,19.15
2018-09-01T12:03:04.157Z,19.15
2018-09-01T12:04:04.122Z,19.14
2018-09-01T12:05:04.088Z,19.11
2018-09-01T12:06:04.055Z,19.14
2018-09-01T12:07:04.024Z,19.11
2018-09-01T12:08:03.994Z,19.11
2018-09-01T12:09:04.024Z,19.29
2018-09-01T12:10:03.927Z,19.22
2018-09-01T12:11:03.892Z,19.26
2018-09-01T12:12:03.900Z,19.29
2018-09-01T12:13:03.834Z,19.34
2018-09-01T12:14:03.816Z,19.33
2018-09-01T12:15:03.765Z,19.31
2018-09-01T12:16:03.730Z,19.54
2018-09-01T12:17:03.698Z,19.67
2018-09-01T12:18:03.666Z,19.99
2018-09-01T12:19:03.630Z,20.11
2018-09-01T12:20:03.599Z,20.19
2018-09-01T12:21:03.571Z,20.21
2018-09-01T12:22:03.541Z,20.13
2018-09-01T12:23:03.499Z,20.11
2018-09-01T12:24:03.464Z,20.00
2018-09-01T12:25:03.431Z,19.95
2018-09-01T12:26:03.404Z,19.89
2018-09-01T12:27:03.372Z,19.79
2018-09-01T12:28:03.367Z,19.84
2018-09-01T12:29:03.307Z,19.82
2018-09-01T12:30:03.275Z,19.91
2018-09-01T12:31:03.236Z,19.70
2018-09-01T12:32:03.207Z,19.67
2018-09-01T12:33:03.174Z,19.63
2018-09-01T12:34:03.148Z,19.67
2018-09-01T12:35:03.110Z,19.76
2018-09-01T12:36:03.075Z,19.74
2018-09-01T12:37:03.070Z,19.70
2018-09-01T12:38:03.006Z,19.73
2018-09-01T12:39:02.995Z,19.85
2018-09-01T12:40:02.946Z,19.94
2018-09-01T12:41:02.920Z,20.11
2018-09-01T12:42:02.953Z,20.24
2018-09-01T12:43:02.847Z,20.40
2018-09-01T12:44:02.815Z,20.48
2018-09-01T12:45:02.785Z,20.40
2018-09-01T12:46:02.752Z,20.36
2018-09-01T12:47:02.717Z,20.22
2018-09-01T12:48:02.685Z,19.84
2018-09-01T12:49:02.657Z,19.71
2018-09-01T12:50:02.616Z,19.74
2018-09-01T12:51:02.585Z,19.66
2018-09-01T12:52:02.555Z,19.45
2018-09-01T12:53:02.548Z,19.52
2018-09-01T12:54:02.492Z,19.59
2018-09-01T12:55:02.460Z,19.52
2018-09-01T12:56:02.423Z,19.67
2018-09-01T12:57:02.388Z,19.82
2018-09-01T12:58:02.358Z,19.85
2018-09-01T12:59:02.328Z,19.86
2018-09-01T13:00:02.291Z,20.02
2018-09-01T13:01:02.258Z,20.24
2018-09-01T13:02:02.225Z,20.40
2018-09-01T13:03:02.194Z,20.47
2018-09-01T13:04:02.164Z,20.37
2018-09-01T13:05:02.134Z,20.41
2018-09-01T13:06:02.103Z,20.37
2018-09-01T13:07:02.072Z,20.34
2018-09-01T13:08:02.078Z,20.32
2018-09-01T13:09:02.000Z,20.39
2018-09-01T13:10:01.967Z,20.31
2018-09-01T13:11:01.935Z,20.19
2018-09-01T13:12:01.909Z,20.16
2018-09-01T13:13:01.878Z,20.11
2018-09-01T13:14:01.836Z,19.96
2018-09-01T13:15:01.809Z,19.82
2018-09-01T13:16:01.776Z,19.74
2018-09-01T13:17:01.751Z,19.54
2018-09-01T13:18:01.715Z,19.48
2018-09-01T13:19:01.679Z,19.54